Newark, New Jersey
Current Conditions -  °F | °C
As of 11:51 AM on Tuesday 27 Jan 2015 (Local Time) from KEWR Reporting Station
Light Snow Light Snow  
Wind Chill: -9°   Ceiling: 2500
Heat Index: -3°   Visibility: 5mi
Dew Point: -7°   Wind: 12mph
Humidity: 75%   Direction: 320°NW
Pressure: 29.69"   Gusts: NA
Location:  40.73°N, 74.17°W
Report Text: KEWR 271651Z 32010KT 5SM -SN FEW008 BKN025 OVC033 M03/M07 A2969 RMK AO2 SLP053 P0000 T10281067 $
Loading
Personal Weather Stations






























Interactive Weather Map New forecast layout! Learn more

10-Day Weather Forecast

Advertisements
Track Severe Weather on mobile